Time;durP1;ratioP1;P1;durP2;ratioP2;P2;SDS_P1;SDS_P2;PMS_P1;PMS_P2;Temp;Humidity;BMP_temperature;BMP_pressure;BME280_temperature;BME280_humidity;BME280_pressure;Samples;Min_cycle;Max_cycle;Signal;HPM_P1;HPM_P2
2022/01/25 00:10:02;;;;;;;18.73;9.68;;;-6.70;94.70;;;;;;5021588;28;20029;-76
2022/01/25 00:15:15;;;;;;;22.63;12.77;;;-7.10;94.60;;;;;;5017038;28;20402;-75
2022/01/25 00:29:14;;;;;;;21.55;11.70;;;-7.60;95.90;;;;;;4998394;28;20410;-81
2022/01/25 00:31:41;;;;;;;17.52;11.57;;;-7.60;95.90;;;;;;5015874;28;20026;-79
2022/01/25 00:34:08;;;;;;;16.88;10.70;;;-7.60;96.00;;;;;;5019031;28;20091;-82
2022/01/25 00:36:34;;;;;;;20.48;12.25;;;-7.60;96.10;;;;;;5016549;28;20046;-83
2022/01/25 00:39:01;;;;;;;17.20;10.20;;;-7.70;96.10;;;;;;5011235;28;20022;-85
2022/01/25 00:41:27;;;;;;;21.23;12.88;;;-7.70;96.20;;;;;;5016739;28;20033;-83
2022/01/25 00:43:57;;;;;;;13.33;8.47;;;-7.70;96.30;;;;;;5015252;28;20045;-81
2022/01/25 00:46:23;;;;;;;14.65;8.43;;;-7.70;96.40;;;;;;5013914;28;20092;-81
2022/01/25 00:48:53;;;;;;;16.25;9.32;;;-7.70;96.50;;;;;;5016214;28;20434;-82
2022/01/25 00:54:10;;;;;;;19.33;9.98;;;-7.80;96.60;;;;;;5035676;28;20025;-82
2022/01/25 00:56:39;;;;;;;24.38;12.15;;;-7.80;96.80;;;;;;5021472;28;20037;-83
2022/01/25 00:59:10;;;;;;;20.88;11.40;;;-7.70;96.90;;;;;;5017076;28;20391;-83
2022/01/25 01:01:37;;;;;;;21.55;10.68;;;-7.70;97.10;;;;;;5015851;28;20037;-83
2022/01/25 01:04:04;;;;;;;19.52;11.73;;;-7.70;97.20;;;;;;5009772;28;20493;-82
2022/01/25 01:06:30;;;;;;;20.15;11.60;;;-7.60;97.20;;;;;;5016673;28;20048;-82
2022/01/25 01:08:56;;;;;;;20.02;11.43;;;-7.60;97.10;;;;;;5033177;28;20029;-82
2022/01/25 01:11:31;;;;;;;24.83;12.82;;;-7.50;97.00;;;;;;5019512;28;20030;-82
2022/01/25 01:16:55;;;;;;;17.08;10.20;;;-7.40;96.60;;;;;;5032262;28;20026;-82
2022/01/25 01:30:40;;;;;;;20.15;10.77;;;-7.20;96.10;;;;;;5028582;28;20544;-80
2022/01/25 01:43:56;;;;;;;21.42;11.85;;;-7.10;95.70;;;;;;5014628;28;20014;-81
2022/01/25 01:48:58;;;;;;;21.92;12.18;;;-7.10;95.60;;;;;;5014094;28;20018;-79
2022/01/25 01:51:29;;;;;;;23.02;11.63;;;-7.10;95.50;;;;;;5012804;28;20048;-81
2022/01/25 01:53:57;;;;;;;19.15;11.77;;;-7.10;95.50;;;;;;5026816;28;20053;-81
2022/01/25 01:56:23;;;;;;;19.83;11.40;;;-7.10;95.50;;;;;;5033690;28;20036;-80
2022/01/25 01:58:55;;;;;;;20.55;11.50;;;-7.10;95.40;;;;;;5033380;28;20094;-79
2022/01/25 02:01:24;;;;;;;21.05;11.55;;;-7.00;95.30;;;;;;5033576;28;20018;-81
2022/01/25 02:03:51;;;;;;;20.23;12.90;;;-7.00;95.10;;;;;;5016011;28;20036;-81
2022/01/25 02:06:16;;;;;;;17.95;8.85;;;-7.00;95.20;;;;;;5033143;28;20036;-80
2022/01/25 02:08:42;;;;;;;19.58;12.30;;;-7.00;95.00;;;;;;5033405;28;20041;-81
2022/01/25 02:11:08;;;;;;;19.27;11.73;;;-7.00;95.00;;;;;;5033980;28;20026;-80
2022/01/25 02:13:37;;;;;;;24.92;13.93;;;-6.90;95.00;;;;;;5034257;28;20033;-80
2022/01/25 02:16:07;;;;;;;20.52;12.13;;;-6.90;94.90;;;;;;5034189;28;20025;-80
2022/01/25 02:24:04;;;;;;;27.17;12.40;;;-6.80;94.60;;;;;;5043719;28;20033;-81
2022/01/25 02:26:30;;;;;;;20.70;11.85;;;-6.80;94.50;;;;;;5050467;28;20502;-79
2022/01/25 02:28:56;;;;;;;20.17;12.32;;;-6.80;94.50;;;;;;5032847;28;20053;-81
2022/01/25 02:31:22;;;;;;;21.60;12.02;;;-6.80;94.60;;;;;;5033791;28;20026;-82
2022/01/25 02:33:48;;;;;;;23.25;13.68;;;-6.80;94.50;;;;;;5034149;28;20026;-81
2022/01/25 02:36:24;;;;;;;19.33;11.15;;;-6.70;94.60;;;;;;5032184;28;20052;-82
2022/01/25 02:38:50;;;;;;;16.43;10.13;;;-6.70;94.60;;;;;;5033327;28;20462;-82
2022/01/25 02:41:16;;;;;;;22.35;13.63;;;-6.70;94.50;;;;;;5033484;28;20029;-81
2022/01/25 02:43:45;;;;;;;20.30;11.18;;;-6.70;94.40;;;;;;5026724;28;20040;-81
2022/01/25 02:48:56;;;;;;;19.35;13.07;;;-6.70;94.50;;;;;;5013351;28;20026;-80
2022/01/25 02:51:29;;;;;;;19.55;13.07;;;-6.70;94.50;;;;;;5013107;28;20117;-81
2022/01/25 02:53:56;;;;;;;23.25;12.30;;;-6.70;94.60;;;;;;5016674;28;20407;-80
2022/01/25 02:56:23;;;;;;;23.90;12.52;;;-6.70;94.50;;;;;;5013902;28;20102;-83
2022/01/25 02:58:49;;;;;;;22.08;12.25;;;-6.80;94.50;;;;;;5013011;28;20029;-81
2022/01/25 03:01:16;;;;;;;24.10;13.35;;;-6.80;94.50;;;;;;5012694;28;20033;-82
2022/01/25 03:03:41;;;;;;;23.87;12.47;;;-6.80;94.40;;;;;;5012929;28;20576;-80
2022/01/25 03:06:08;;;;;;;20.80;12.68;;;-6.80;94.50;;;;;;5011760;28;20303;-81
2022/01/25 03:08:34;;;;;;;24.60;12.93;;;-6.80;94.60;;;;;;5012988;28;20048;-82
2022/01/25 03:11:01;;;;;;;25.45;14.10;;;-6.80;94.60;;;;;;5014084;28;20041;-81
2022/01/25 03:13:33;;;;;;;23.87;13.13;;;-6.70;94.60;;;;;;5023359;28;20364;-80
2022/01/25 03:16:04;;;;;;;21.27;10.43;;;-6.70;94.60;;;;;;5032975;28;20321;-81
2022/01/25 03:21:03;;;;;;;23.27;11.43;;;-6.70;95.00;;;;;;5034099;28;20458;-80
2022/01/25 03:23:31;;;;;;;21.08;13.02;;;-6.70;95.00;;;;;;5033168;28;20034;-82
2022/01/25 03:25:57;;;;;;;25.63;11.98;;;-6.70;95.00;;;;;;5016906;28;20079;-81
2022/01/25 03:28:23;;;;;;;25.90;12.65;;;-6.70;95.00;;;;;;5036286;28;20068;-82
2022/01/25 03:30:50;;;;;;;19.83;11.27;;;-6.70;94.90;;;;;;5034082;28;20386;-82
2022/01/25 03:33:17;;;;;;;20.35;12.23;;;-6.70;94.90;;;;;;5014488;28;20453;-82
2022/01/25 03:35:45;;;;;;;19.40;12.98;;;-6.70;94.90;;;;;;5031792;28;20029;-81
2022/01/25 03:38:11;;;;;;;18.95;12.73;;;-6.70;94.80;;;;;;5033713;28;20040;-81
2022/01/25 03:40:37;;;;;;;20.10;11.75;;;-6.70;94.80;;;;;;5032753;28;20029;-80
2022/01/25 03:43:06;;;;;;;21.23;11.48;;;-6.70;94.90;;;;;;5031398;28;20606;-82
2022/01/25 03:45:34;;;;;;;27.08;14.60;;;-6.70;95.00;;;;;;5032489;28;20018;-81
2022/01/25 03:50:39;;;;;;;23.63;12.25;;;-6.70;95.10;;;;;;5014944;28;20451;-82
2022/01/25 03:53:06;;;;;;;25.02;14.25;;;-6.70;95.00;;;;;;5016154;28;20080;-81
2022/01/25 03:55:32;;;;;;;17.85;9.75;;;-6.70;94.90;;;;;;5017555;28;20034;-82
2022/01/25 03:57:58;;;;;;;19.30;12.10;;;-6.70;94.90;;;;;;5018302;28;20056;-80
2022/01/25 04:00:24;;;;;;;19.98;11.30;;;-6.70;94.90;;;;;;5019408;28;20026;-80
2022/01/25 04:03:03;;;;;;;22.95;12.82;;;-6.70;95.10;;;;;;5018795;28;20026;-81
2022/01/25 04:05:49;;;;;;;23.50;13.13;;;-6.70;94.70;;;;;;5002670;28;20564;-81
2022/01/25 04:08:16;;;;;;;22.90;13.15;;;-6.60;94.80;;;;;;5039855;28;20104;-81
2022/01/25 04:10:42;;;;;;;22.95;14.52;;;-6.70;94.80;;;;;;5036883;28;20025;-83
2022/01/25 04:13:08;;;;;;;23.33;13.23;;;-6.70;94.80;;;;;;5045973;28;20040;-82
2022/01/25 04:15:40;;;;;;;16.60;11.27;;;-6.60;94.70;;;;;;5046811;28;20021;-82
2022/01/25 04:20:42;;;;;;;19.10;11.82;;;-6.60;94.80;;;;;;5036898;28;20026;-83
2022/01/25 04:25:52;;;;;;;23.05;14.15;;;-6.60;94.60;;;;;;5036464;28;20505;-82
2022/01/25 04:28:18;;;;;;;20.60;11.07;;;-6.60;94.70;;;;;;5017815;28;20049;-81
2022/01/25 04:30:44;;;;;;;23.08;12.27;;;-6.60;94.80;;;;;;5035928;28;20021;-82
2022/01/25 04:33:24;;;;;;;23.27;12.63;;;-6.60;94.90;;;;;;5035777;28;20471;-82
2022/01/25 04:36:09;;;;;;;21.75;13.98;;;-6.60;94.90;;;;;;5025325;28;20018;-83
2022/01/25 04:49:33;;;;;;;25.70;13.50;;;-6.70;94.70;;;;;;5028670;28;20037;-81
2022/01/25 04:59:33;;;;;;;23.77;14.45;;;-6.60;94.70;;;;;;5032163;28;20050;-83
2022/01/25 05:02:05;;;;;;;25.02;14.55;;;-6.60;94.60;;;;;;5021186;28;20501;-84
2022/01/25 05:04:37;;;;;;;24.33;14.35;;;-6.60;94.50;;;;;;4998252;28;20022;-82
2022/01/25 05:07:15;;;;;;;34.38;14.48;;;-6.60;94.50;;;;;;5015087;28;20068;-81
2022/01/25 05:09:43;;;;;;;20.08;12.48;;;-6.60;94.40;;;;;;5014155;28;20034;-82
2022/01/25 05:12:11;;;;;;;25.20;14.55;;;-6.60;94.40;;;;;;5015494;28;20036;-82
2022/01/25 05:14:47;;;;;;;23.73;14.65;;;-6.60;94.40;;;;;;5014974;28;20034;-82
2022/01/25 05:17:18;;;;;;;24.67;15.00;;;-6.50;94.40;;;;;;5014979;28;20422;-84
2022/01/25 05:22:28;;;;;;;31.80;13.85;;;-6.60;94.90;;;;;;5015102;28;20100;-82
2022/01/25 05:24:55;;;;;;;23.50;12.52;;;-6.60;95.20;;;;;;5014727;28;20463;-81
2022/01/25 05:27:23;;;;;;;21.75;14.13;;;-6.70;95.40;;;;;;5012769;28;20034;-81
2022/01/25 05:29:49;;;;;;;29.75;14.02;;;-6.80;95.60;;;;;;5014527;28;20056;-83
2022/01/25 05:32:17;;;;;;;26.67;13.70;;;-6.90;95.60;;;;;;5013971;28;20046;-82
2022/01/25 05:34:42;;;;;;;18.15;10.48;;;-7.00;95.70;;;;;;5014984;28;20025;-82
2022/01/25 05:37:08;;;;;;;28.60;13.35;;;-7.10;95.90;;;;;;5018820;28;20053;-82
2022/01/25 05:39:37;;;;;;;22.42;12.20;;;-7.30;96.00;;;;;;5025756;28;20024;-81
2022/01/25 05:44:57;;;;;;;28.63;13.20;;;-7.40;96.30;;;;;;5036106;28;20029;-82
2022/01/25 05:47:33;;;;;;;24.50;13.50;;;-7.40;96.40;;;;;;5035498;28;20426;-83
2022/01/25 05:50:00;;;;;;;31.38;16.25;;;-7.50;96.40;;;;;;5033466;28;20025;-81
2022/01/25 05:52:26;;;;;;;29.73;15.55;;;-7.60;96.60;;;;;;5033402;28;20036;-82
2022/01/25 05:54:53;;;;;;;28.95;16.27;;;-7.60;96.80;;;;;;5036523;28;20030;-82
2022/01/25 05:57:18;;;;;;;31.20;15.30;;;-7.60;96.90;;;;;;5019273;28;20064;-82
2022/01/25 05:59:44;;;;;;;28.40;13.40;;;-7.60;97.10;;;;;;5015904;28;20486;-85
2022/01/25 06:02:10;;;;;;;35.22;17.80;;;-7.60;97.20;;;;;;5014754;28;20038;-80
2022/01/25 06:04:36;;;;;;;35.60;17.17;;;-7.60;97.30;;;;;;5013678;28;20032;-82
2022/01/25 06:07:02;;;;;;;37.42;17.48;;;-7.50;97.40;;;;;;5013008;28;20084;-82
2022/01/25 06:09:29;;;;;;;31.27;17.58;;;-7.50;97.50;;;;;;5012999;28;20039;-81
2022/01/25 06:11:55;;;;;;;35.53;16.00;;;-7.50;97.70;;;;;;5033480;28;20025;-82
2022/01/25 06:14:21;;;;;;;25.58;14.55;;;-7.50;97.50;;;;;;5015634;28;20478;-80
2022/01/25 06:16:50;;;;;;;24.63;12.90;;;-7.40;97.50;;;;;;5014531;28;20132;-80
2022/01/25 06:19:15;;;;;;;29.85;15.38;;;-7.40;97.50;;;;;;5034222;28;20056;-81
2022/01/25 06:21:41;;;;;;;24.30;15.05;;;-7.50;97.50;;;;;;5020288;28;20026;-81
2022/01/25 06:24:07;;;;;;;29.40;14.27;;;-7.40;97.60;;;;;;5014028;28;20088;-79
2022/01/25 06:26:33;;;;;;;30.98;13.68;;;-7.40;97.50;;;;;;5013871;28;20037;-84
2022/01/25 06:29:00;;;;;;;28.98;15.13;;;-7.40;97.50;;;;;;5013073;28;20042;-83
2022/01/25 06:31:29;;;;;;;26.80;14.60;;;-7.50;97.40;;;;;;5017825;28;20032;-78
2022/01/25 06:33:55;;;;;;;30.55;14.25;;;-7.50;97.50;;;;;;5025424;28;20037;-87
2022/01/25 06:36:21;;;;;;;35.63;13.85;;;-7.50;97.60;;;;;;5016328;28;20026;-84
2022/01/25 06:38:47;;;;;;;25.88;12.68;;;-7.50;97.60;;;;;;5023627;28;20033;-83
2022/01/25 06:41:14;;;;;;;24.30;14.10;;;-7.50;97.50;;;;;;5025186;28;20025;-85
2022/01/25 06:43:40;;;;;;;;;;;-7.50;97.60;;;;;;5029984;28;20037;-84
2022/01/25 06:46:06;;;;;;;16.85;8.68;;;-7.60;97.50;;;;;;5029348;28;19905;-79
2022/01/25 06:48:32;;;;;;;19.98;10.48;;;-7.60;97.60;;;;;;4995761;28;20045;-79
2022/01/25 06:50:59;;;;;;;26.67;14.30;;;-7.60;97.60;;;;;;5013561;28;20045;-81
2022/01/25 06:53:25;;;;;;;35.00;17.03;;;-7.60;97.60;;;;;;4995916;28;20022;-81
2022/01/25 06:55:51;;;;;;;26.40;14.88;;;-7.50;97.80;;;;;;5012832;28;20032;-82
2022/01/25 06:58:17;;;;;;;32.05;17.33;;;-7.50;97.90;;;;;;5022289;28;20451;-82
2022/01/25 07:00:43;;;;;;;33.30;16.50;;;-7.50;98.10;;;;;;5033469;28;20026;-82
2022/01/25 07:03:09;;;;;;;27.98;14.05;;;-7.40;98.20;;;;;;5016073;28;20040;-82
2022/01/25 07:05:35;;;;;;;30.60;14.90;;;-7.40;98.30;;;;;;5034550;28;20029;-83
2022/01/25 07:08:01;;;;;;;33.95;16.02;;;-7.40;98.30;;;;;;5031109;28;20037;-81
2022/01/25 07:10:27;;;;;;;32.65;15.88;;;-7.30;98.40;;;;;;5022673;28;20563;-81
2022/01/25 07:12:52;;;;;;;29.75;15.40;;;-7.30;98.30;;;;;;5018427;28;20032;-80
2022/01/25 07:15:19;;;;;;;28.55;13.68;;;-7.30;98.30;;;;;;5013185;28;20386;-82
2022/01/25 07:17:45;;;;;;;22.63;12.60;;;-7.30;98.30;;;;;;5012305;28;20030;-81
2022/01/25 07:20:12;;;;;;;23.60;13.77;;;-7.20;98.40;;;;;;5012615;28;20042;-82
2022/01/25 07:22:41;;;;;;;28.60;17.98;;;-7.20;98.40;;;;;;5012658;28;20018;-83
2022/01/25 07:25:10;;;;;;;22.70;12.05;;;-7.20;98.50;;;;;;5014898;28;20034;-82
2022/01/25 07:27:36;;;;;;;26.15;13.85;;;-7.10;98.60;;;;;;5016867;28;20026;-80
2022/01/25 07:30:06;;;;;;;26.42;15.00;;;-7.00;98.70;;;;;;5022063;28;20038;-80
2022/01/25 07:32:33;;;;;;;25.77;14.82;;;-7.00;98.70;;;;;;5041801;28;20048;-81
2022/01/25 07:35:02;;;;;;;28.17;17.88;;;-6.90;98.70;;;;;;5038807;28;20029;-81
2022/01/25 07:37:31;;;;;;;21.80;12.68;;;-6.90;98.80;;;;;;5019537;28;20129;-83
2022/01/25 07:40:03;;;;;;;29.75;16.00;;;-6.80;98.80;;;;;;5037921;28;20024;-81
2022/01/25 07:42:33;;;;;;;26.13;15.98;;;-6.70;98.70;;;;;;5037704;28;20394;-81
2022/01/25 07:44:59;;;;;;;28.73;14.88;;;-6.60;98.60;;;;;;5039235;28;20091;-80
2022/01/25 07:47:24;;;;;;;17.30;11.57;;;-6.60;98.50;;;;;;5026540;28;20459;-80
2022/01/25 07:49:50;;;;;;;25.92;13.57;;;-6.50;98.40;;;;;;5021968;28;20018;-81
2022/01/25 07:52:16;;;;;;;23.30;12.90;;;-6.50;98.30;;;;;;5018737;28;20037;-84
2022/01/25 07:54:42;;;;;;;20.40;12.80;;;-6.40;98.10;;;;;;5015846;28;20033;-83
2022/01/25 07:57:08;;;;;;;22.10;11.95;;;-6.30;98.00;;;;;;4998639;28;20049;-82
2022/01/25 07:59:34;;;;;;;21.10;11.90;;;-6.30;97.90;;;;;;4999002;28;20033;-82
2022/01/25 08:01:59;;;;;;;23.08;12.95;;;-6.30;97.80;;;;;;5016120;28;20042;-78
2022/01/25 08:04:27;;;;;;;22.92;12.48;;;-6.20;97.80;;;;;;5027067;28;20030;-81
2022/01/25 08:06:52;;;;;;;22.85;12.30;;;-6.20;97.80;;;;;;5014852;28;20034;-81
2022/01/25 08:09:19;;;;;;;24.05;12.77;;;-6.20;97.70;;;;;;5015631;28;20037;-82
2022/01/25 08:11:45;;;;;;;23.88;11.50;;;-6.10;97.80;;;;;;5015897;28;20372;-82
2022/01/25 08:14:14;;;;;;;27.00;14.27;;;-6.10;97.90;;;;;;5014639;28;20499;-81
2022/01/25 08:16:44;;;;;;;20.90;12.52;;;-6.20;97.80;;;;;;5015672;28;20059;-80
2022/01/25 08:19:10;;;;;;;21.92;12.45;;;-6.20;97.90;;;;;;5015812;28;20094;-82
2022/01/25 08:21:37;;;;;;;18.55;10.90;;;-6.20;97.90;;;;;;4998966;28;20048;-81
2022/01/25 08:24:04;;;;;;;15.55;10.35;;;-6.20;98.10;;;;;;5025681;28;20077;-82
2022/01/25 08:26:30;;;;;;;14.43;10.27;;;-6.10;98.20;;;;;;5019977;28;20444;-81
2022/01/25 08:28:59;;;;;;;26.75;13.50;;;-6.10;98.20;;;;;;5026302;28;20161;-83
2022/01/25 08:31:25;;;;;;;23.38;13.30;;;-6.10;98.10;;;;;;5025106;28;20018;-85
2022/01/25 08:33:51;;;;;;;25.38;15.35;;;-6.10;98.10;;;;;;5016468;28;20033;-82
2022/01/25 08:36:17;;;;;;;18.75;10.32;;;-6.10;98.20;;;;;;4996915;28;20084;-82
2022/01/25 08:38:43;;;;;;;18.65;12.18;;;-6.10;98.00;;;;;;5020509;28;20052;-82
2022/01/25 08:41:09;;;;;;;19.38;12.30;;;-6.10;97.80;;;;;;5035327;28;20409;-83
2022/01/25 08:43:35;;;;;;;19.10;12.60;;;-6.20;97.60;;;;;;5033424;28;20117;-82
2022/01/25 08:46:02;;;;;;;22.98;11.90;;;-6.20;97.70;;;;;;5033861;28;20025;-81
2022/01/25 08:48:28;;;;;;;;;;;-6.20;97.80;;;;;;5035107;28;20040;-79
2022/01/25 08:50:54;;;;;;;17.80;11.07;;;-6.20;97.90;;;;;;5017251;28;19905;-83
2022/01/25 08:53:21;;;;;;;22.15;12.65;;;-6.20;98.00;;;;;;5021207;28;20022;-80
2022/01/25 08:55:47;;;;;;;23.75;14.02;;;-6.20;97.90;;;;;;5011643;28;20037;-81
2022/01/25 08:58:13;;;;;;;20.70;12.60;;;-6.20;98.00;;;;;;5017621;28;20037;-83
2022/01/25 09:00:39;;;;;;;22.58;12.43;;;-6.20;98.20;;;;;;5034955;28;20540;-82
2022/01/25 09:03:04;;;;;;;18.90;11.48;;;-6.10;98.30;;;;;;5034919;28;20065;-83
2022/01/25 09:05:30;;;;;;;22.55;12.85;;;-6.00;98.60;;;;;;5035449;28;20018;-83
2022/01/25 09:07:57;;;;;;;21.30;12.90;;;-5.90;98.40;;;;;;5034753;28;20029;-83
2022/01/25 09:10:24;;;;;;;20.13;11.75;;;-5.80;98.30;;;;;;5031530;28;20075;-82
2022/01/25 09:12:50;;;;;;;18.95;11.02;;;-5.70;98.30;;;;;;5013417;28;20087;-81
2022/01/25 09:15:16;;;;;;;20.27;12.90;;;-5.70;98.20;;;;;;5013557;28;20094;-82
2022/01/25 09:17:42;;;;;;;23.27;12.90;;;-5.70;98.10;;;;;;5015517;28;20136;-81
2022/01/25 09:20:09;;;;;;;20.45;13.02;;;-5.60;98.10;;;;;;4997774;28;20049;-83
2022/01/25 09:22:35;;;;;;;17.67;11.05;;;-5.50;97.90;;;;;;5015250;28;20018;-82
2022/01/25 09:25:01;;;;;;;19.83;12.10;;;-5.40;97.70;;;;;;5014290;28;20029;-83
2022/01/25 09:27:26;;;;;;;14.63;7.72;;;-5.30;97.50;;;;;;5015372;28;20069;-81
2022/01/25 09:29:52;;;;;;;16.67;11.57;;;-5.20;97.30;;;;;;5015803;28;20092;-81
2022/01/25 09:32:19;;;;;;;19.75;10.85;;;-5.20;97.40;;;;;;5022654;28;20033;-81
2022/01/25 09:34:46;;;;;;;20.60;12.57;;;-5.20;97.70;;;;;;5020990;28;20197;-83
2022/01/25 09:37:12;;;;;;;19.63;14.57;;;-5.10;97.50;;;;;;4996797;28;20042;-81
2022/01/25 09:39:38;;;;;;;15.65;9.43;;;-5.10;97.30;;;;;;5014096;28;20057;-79
2022/01/25 09:42:08;;;;;;;17.25;9.82;;;-5.10;97.30;;;;;;5013441;28;20018;-82
2022/01/25 09:44:36;;;;;;;15.48;8.73;;;-5.00;97.20;;;;;;5012927;28;20081;-83
2022/01/25 09:47:02;;;;;;;16.40;9.05;;;-5.00;97.00;;;;;;5012230;28;20089;-80
2022/01/25 09:49:28;;;;;;;15.57;9.88;;;-4.90;96.90;;;;;;5013960;28;20048;-81
2022/01/25 09:51:56;;;;;;;17.20;9.85;;;-4.90;96.80;;;;;;5008119;28;20109;-81
2022/01/25 09:54:21;;;;;;;;;;;-4.90;96.50;;;;;;5018134;28;20026;-81
2022/01/25 09:56:47;;;;;;;18.83;10.15;;;-4.80;96.30;;;;;;5036528;28;20470;-78
2022/01/25 09:59:13;;;;;;;17.25;9.32;;;-4.80;96.20;;;;;;5017786;28;20021;-84
2022/01/25 10:01:39;;;;;;;15.73;10.00;;;-4.80;96.20;;;;;;5033881;28;20079;-82
2022/01/25 10:04:25;;;;;;;18.27;10.40;;;-4.80;96.40;;;;;;5016567;28;20493;-83
2022/01/25 10:06:51;;;;;;;17.65;10.27;;;-4.70;96.40;;;;;;5034742;28;20018;-81
2022/01/25 10:09:19;;;;;;;19.63;9.90;;;-4.70;96.30;;;;;;5016981;28;20083;-82
2022/01/25 10:11:45;;;;;;;19.00;11.02;;;-4.70;96.00;;;;;;5034640;28;20021;-82
2022/01/25 10:14:11;;;;;;;16.88;10.52;;;-4.60;95.70;;;;;;5038630;28;20036;-84
2022/01/25 10:16:38;;;;;;;17.67;9.65;;;-4.60;95.40;;;;;;5043582;28;20029;-82
2022/01/25 10:19:10;;;;;;;15.13;9.05;;;-4.50;95.40;;;;;;5039353;28;20029;-81
2022/01/25 10:21:42;;;;;;;17.98;13.23;;;-4.50;95.60;;;;;;5015592;28;20506;-84
2022/01/25 10:24:14;;;;;;;17.30;10.57;;;-4.50;95.00;;;;;;5033256;28;20419;-81
2022/01/25 10:26:49;;;;;;;16.20;9.98;;;-4.60;94.80;;;;;;5015492;28;20100;-81
2022/01/25 10:29:18;;;;;;;20.02;10.65;;;-4.60;95.00;;;;;;5033016;28;20050;-81
2022/01/25 10:31:49;;;;;;;17.42;9.18;;;-4.60;95.00;;;;;;5021488;28;20040;-80
2022/01/25 10:34:20;;;;;;;16.88;10.18;;;-4.60;95.30;;;;;;5015833;28;20026;-80
2022/01/25 10:36:48;;;;;;;18.15;9.73;;;-4.60;95.50;;;;;;5014052;28;20359;-82
2022/01/25 10:39:27;;;;;;;17.10;9.05;;;-4.60;95.70;;;;;;5013432;28;20054;-82
2022/01/25 10:42:04;;;;;;;17.73;9.50;;;-4.60;95.80;;;;;;5013269;28;20171;-83
2022/01/25 10:44:49;;;;;;;16.50;9.55;;;-4.60;95.60;;;;;;4995178;28;20422;-79
2022/01/25 10:47:16;;;;;;;16.25;11.13;;;-4.60;95.30;;;;;;5013152;28;20018;-82
2022/01/25 10:49:47;;;;;;;13.18;8.57;;;-4.60;95.10;;;;;;5014235;28;20120;-81
2022/01/25 10:52:13;;;;;;;12.13;7.50;;;-4.60;95.20;;;;;;5033000;28;20025;-81
2022/01/25 10:54:40;;;;;;;10.05;7.22;;;-4.60;95.60;;;;;;5032639;28;20025;-80
2022/01/25 10:57:20;;;;;;;13.95;9.45;;;-4.80;95.40;;;;;;5032560;28;20040;-81
2022/01/25 11:00:01;;;;;;;15.73;9.05;;;-5.00;95.60;;;;;;5015033;28;20025;-80
2022/01/25 11:02:27;;;;;;;17.38;9.25;;;-5.00;95.80;;;;;;5033511;28;20148;-84
2022/01/25 11:05:08;;;;;;;15.93;9.50;;;-5.00;96.00;;;;;;5032825;28;20053;-83
2022/01/25 11:07:46;;;;;;;9.15;6.22;;;-5.00;96.20;;;;;;4997468;28;20030;-84
2022/01/25 11:10:33;;;;;;;14.93;8.48;;;-5.00;96.40;;;;;;5012651;28;20019;-82
2022/01/25 11:13:03;;;;;;;14.88;7.78;;;-5.00;96.50;;;;;;4995112;28;20026;-81
2022/01/25 11:15:29;;;;;;;17.25;8.90;;;-5.10;96.50;;;;;;5013340;28;20043;-81
2022/01/25 11:17:55;;;;;;;7.97;5.45;;;-5.20;96.60;;;;;;5012651;28;20041;-82
2022/01/25 11:20:21;;;;;;;15.05;8.75;;;-5.20;96.80;;;;;;5012639;28;20049;-83
2022/01/25 11:22:47;;;;;;;13.82;8.75;;;-5.30;96.80;;;;;;5010243;28;20057;-80
2022/01/25 11:25:21;;;;;;;14.05;8.75;;;-5.30;97.00;;;;;;5012859;28;20022;-80
2022/01/25 11:27:48;;;;;;;12.88;7.80;;;-5.30;97.10;;;;;;5010521;28;20133;-83
2022/01/25 11:30:19;;;;;;;18.15;10.27;;;-5.20;97.20;;;;;;5012443;28;20049;-81
2022/01/25 11:32:53;;;;;;;15.98;10.10;;;-5.20;97.10;;;;;;5012398;28;20113;-82
2022/01/25 11:35:24;;;;;;;14.50;7.75;;;-5.20;97.00;;;;;;5012860;28;20053;-82
2022/01/25 11:37:51;;;;;;;15.43;9.02;;;-5.10;97.00;;;;;;5012603;28;20041;-83
2022/01/25 11:40:45;;;;;;;15.60;9.13;;;-5.10;96.90;;;;;;5010948;28;20030;-82
2022/01/25 11:43:14;;;;;;;12.98;8.35;;;-5.10;96.90;;;;;;4995393;28;20036;-84
2022/01/25 11:45:43;;;;;;;17.63;10.15;;;-5.10;96.90;;;;;;5012781;28;20026;-80
2022/01/25 11:48:09;;;;;;;19.77;9.07;;;-5.10;96.90;;;;;;5014934;28;20032;-81
2022/01/25 11:50:38;;;;;;;14.77;8.93;;;-5.10;96.90;;;;;;5033828;28;20104;-81
2022/01/25 11:53:19;;;;;;;12.52;7.43;;;-5.00;97.00;;;;;;5035194;28;20048;-83
2022/01/25 11:55:51;;;;;;;12.35;8.13;;;-5.00;97.10;;;;;;5036964;28;20033;-82
2022/01/25 11:58:32;;;;;;;18.58;8.70;;;-5.10;96.90;;;;;;4996598;28;20042;-82
2022/01/25 12:01:01;;;;;;;13.65;8.55;;;-5.20;96.80;;;;;;5014604;28;20057;-82
2022/01/25 12:03:27;;;;;;;15.70;8.35;;;-5.40;96.70;;;;;;5026213;28;20018;-81
2022/01/25 12:06:08;;;;;;;17.92;8.65;;;-5.40;96.90;;;;;;5007873;28;20085;-81
2022/01/25 12:11:40;;;;;;;;;;;-5.50;97.30;;;;;;4979165;28;20121;-82
2022/01/25 12:14:23;;;;;;;16.73;9.18;;;-5.40;97.20;;;;;;5014765;28;19905;-82
2022/01/25 12:17:02;;;;;;;12.80;8.85;;;-5.40;97.40;;;;;;5015559;28;20032;-82
2022/01/25 12:19:30;;;;;;;16.17;9.95;;;-5.40;97.50;;;;;;5015726;28;20025;-81
2022/01/25 12:25:16;;;;;;;15.18;9.73;;;-5.30;97.40;;;;;;5012140;28;20034;-80
2022/01/25 12:27:58;;;;;;;18.48;10.63;;;-5.30;97.30;;;;;;5016200;28;20061;-81
2022/01/25 12:30:27;;;;;;;16.52;9.95;;;-5.30;97.00;;;;;;5029416;28;20033;-83
2022/01/25 12:33:03;;;;;;;15.68;8.90;;;-5.20;96.80;;;;;;5035588;28;20482;-82
2022/01/25 12:35:41;;;;;;;12.07;8.68;;;-5.20;96.40;;;;;;5034896;28;20041;-81
2022/01/25 12:38:21;;;;;;;11.70;8.43;;;-5.10;96.10;;;;;;5038320;28;20091;-79
2022/01/25 12:41:10;;;;;;;15.45;10.70;;;-5.10;95.90;;;;;;5037398;28;20060;-82
2022/01/25 12:43:42;;;;;;;13.52;9.55;;;-5.10;95.70;;;;;;5041224;28;20040;-81
2022/01/25 12:46:29;;;;;;;14.15;9.48;;;-5.10;95.50;;;;;;5019543;28;20029;-81
2022/01/25 12:48:59;;;;;;;15.25;9.43;;;-5.10;95.30;;;;;;5017346;28;20056;-81
2022/01/25 12:51:38;;;;;;;12.30;7.07;;;-5.10;95.30;;;;;;5016967;28;20045;-83
2022/01/25 12:54:07;;;;;;;15.13;9.77;;;-5.10;95.50;;;;;;5000095;28;20482;-81
2022/01/25 12:56:46;;;;;;;15.25;10.27;;;-5.10;95.60;;;;;;5015667;28;20418;-82
2022/01/25 12:59:18;;;;;;;16.35;9.98;;;-5.20;95.70;;;;;;5015280;28;20034;-81
2022/01/25 13:01:44;;;;;;;15.93;10.05;;;-5.20;95.40;;;;;;5007970;28;20021;-83
2022/01/25 13:04:11;;;;;;;16.35;9.57;;;-5.20;95.30;;;;;;5035511;28;20033;-83
2022/01/25 13:06:51;;;;;;;14.00;10.10;;;-5.20;95.10;;;;;;4998828;28;20529;-81
2022/01/25 13:17:02;;;;;;;14.52;10.10;;;-5.20;94.60;;;;;;5014023;28;20175;-82
2022/01/25 13:19:41;;;;;;;12.65;9.50;;;-5.20;94.50;;;;;;5014503;28;20021;-81
2022/01/25 13:22:14;;;;;;;15.23;9.25;;;-5.20;94.60;;;;;;5016040;28;20053;-82
2022/01/25 13:24:54;;;;;;;18.05;10.63;;;-5.20;94.80;;;;;;5035007;28;20088;-81
2022/01/25 13:27:21;;;;;;;16.58;10.57;;;-5.30;95.00;;;;;;5035120;28;20061;-83
2022/01/25 13:32:50;;;;;;;18.00;10.18;;;-5.30;95.00;;;;;;5034734;28;20107;-82
2022/01/25 13:35:22;;;;;;;15.43;10.63;;;-5.40;95.00;;;;;;5034586;28;20033;-83
2022/01/25 13:38:08;;;;;;;12.75;8.77;;;-5.30;94.90;;;;;;5034027;28;20029;-80
2022/01/25 13:40:49;;;;;;;21.33;11.05;;;-5.40;94.80;;;;;;5006314;28;20121;-82
2022/01/25 13:46:06;;;;;;;17.42;11.02;;;-5.40;95.10;;;;;;5015283;28;20490;-80
2022/01/25 13:48:34;;;;;;;16.05;10.52;;;-5.40;95.10;;;;;;4999336;28;20037;-82
2022/01/25 13:51:05;;;;;;;15.30;9.90;;;-5.40;95.10;;;;;;5027890;28;20029;-81
2022/01/25 13:53:31;;;;;;;18.55;11.23;;;-5.40;95.30;;;;;;5019931;28;20026;-82
2022/01/25 13:55:59;;;;;;;13.00;9.25;;;-5.40;95.50;;;;;;5014178;28;20380;-83
2022/01/25 13:58:28;;;;;;;17.88;10.73;;;-5.50;95.50;;;;;;5013813;28;20483;-81
2022/01/25 14:00:58;;;;;;;20.52;11.30;;;-5.50;95.50;;;;;;5014411;28;20512;-85
2022/01/25 14:03:35;;;;;;;19.48;10.55;;;-5.50;95.50;;;;;;5012747;28;20502;-82
2022/01/25 14:06:02;;;;;;;19.95;11.82;;;-5.50;95.30;;;;;;5013846;28;20375;-82
2022/01/25 14:08:43;;;;;;;16.60;9.50;;;-5.50;95.40;;;;;;5013969;28;20033;-82
2022/01/25 14:22:47;;;;;;;18.52;10.27;;;-5.50;94.90;;;;;;5022390;28;20050;-82
2022/01/25 14:25:34;;;;;;;20.05;11.93;;;-5.40;94.90;;;;;;5013993;28;20045;-81
2022/01/25 14:28:04;;;;;;;16.80;11.35;;;-5.40;95.00;;;;;;4994718;28;20038;-82
2022/01/25 14:30:33;;;;;;;19.98;11.63;;;-5.40;95.10;;;;;;5012920;28;20034;-83
2022/01/25 14:33:11;;;;;;;20.83;11.77;;;-5.40;95.10;;;;;;5011672;28;20025;-82
2022/01/25 14:35:46;;;;;;;17.63;10.75;;;-5.40;94.90;;;;;;5013507;28;20356;-82
2022/01/25 14:38:16;;;;;;;18.48;10.65;;;-5.40;95.20;;;;;;5013201;28;20116;-81
2022/01/25 14:41:13;;;;;;;17.10;11.93;;;-5.40;95.10;;;;;;5011953;28;20057;-83
2022/01/25 14:43:48;;;;;;;16.77;10.43;;;-5.40;95.10;;;;;;5013157;28;20030;-85
2022/01/25 14:46:34;;;;;;;17.75;11.20;;;-5.40;95.10;;;;;;5027041;28;20116;-84
2022/01/25 14:49:21;;;;;;;30.60;12.93;;;-5.40;94.60;;;;;;5032735;28;20112;-81